Have a Safe July 4th! 

Flight Track Log - Related Links

Times and Time Zones

All times are in EDT time to prevent confusion due to time zone crossing. See the SKW6345 flight status page for this flight to view local times or setup timezone preferences in your user account.

Time Position Orientation Groundspeed Altitude Reporting Facility
EDT Latitude Longitude Course Direction KTS MPH feet Rate Location/Type
Sun 11:03:32 AM 37.6667 -122.3167 46° Northeast 208 239 2,700  Level Northern Cal TRACON
Sun 11:05:17 AM 37.7433 -122.2156 46° Northeast 251 289 6,700 2,349 Climbing Oakland Center
Sun 11:06:18 AM 37.8097 -122.1561 35° Northeast 286 329 9,200 2,311 Climbing Oakland Center
Sun 11:07:19 AM 37.8756 -122.0922 37° Northeast 297 342 11,400 1,820 Climbing Oakland Center
Sun 11:08:20 AM 37.9464 -122.0244 37° Northeast 319 367 12,900 1,426 Climbing Oakland Center
Sun 11:09:21 AM 38.0267 -121.9461 38° Northeast 360 414 14,300 1,279 Climbing Oakland Center
Sun 11:10:22 AM 38.1111 -121.8683 36° Northeast 374 430 15,500 1,279 Climbing Oakland Center
Sun 11:11:23 AM 38.1983 -121.7850 37° Northeast 392 451 16,900 1,180 Climbing Oakland Center
Sun 11:12:24 AM 38.2883 -121.6992 37° Northeast 404 465 17,900 984 Climbing Oakland Center
Sun 11:13:25 AM 38.3800 -121.6117 37° Northeast 413 475 18,900 1,082 Climbing Oakland Center
Sun 11:14:26 AM 38.4811 -121.5042 40° Northeast 420 483 20,100 1,082 Climbing Oakland Center
Sun 11:15:27 AM 38.5733 -121.3936 43° Northeast 424 488 21,100 1,082 Climbing Oakland Center
Sun 11:16:28 AM 38.6603 -121.2906 43° Northeast 428 493 22,300 1,082 Climbing Oakland Center
Sun 11:17:29 AM 38.7475 -121.1850 43° Northeast 428 493 23,300 1,033 Climbing Oakland Center
Sun 11:18:30 AM 38.8353 -121.0792 43° Northeast 432 497 24,400 934 Climbing Oakland Center
Sun 11:19:31 AM 38.9219 -120.9731 44° Northeast 431 496 25,200 787 Climbing Oakland Center
Sun 11:20:32 AM 39.0111 -120.8639 44° Northeast 438 504 26,000 689 Climbing Oakland Center
Sun 11:21:33 AM 39.1011 -120.7539 43° Northeast 446 513 26,600 541 Climbing Oakland Center
Sun 11:22:34 AM 39.1931 -120.6411 44° Northeast 455 524 27,100 492 Climbing Oakland Center
Sun 11:23:35 AM 39.2864 -120.5264 44° Northeast 463 533 27,600 492 Climbing Oakland Center
Sun 11:24:36 AM 39.3803 -120.4117 43° Northeast 464 534 28,100 492 Climbing Oakland Center
Sun 11:25:37 AM 39.4744 -120.2950 44° Northeast 469 540 28,600 492 Climbing Oakland Center
Sun 11:26:38 AM 39.5681 -120.1767 44° Northeast 469 540 29,100 541 Climbing Oakland Center
Sun 11:27:39 AM 39.6733 -120.0478 43° Northeast 476 548 29,700 541 Climbing Oakland Center
Sun 11:28:40 AM 39.7658 -119.9300 44° Northeast 467 537 30,200 492 Climbing Oakland Center
Sun 11:29:41 AM 39.8586 -119.8133 44° Northeast 464 534 30,700 492 Climbing Oakland Center
Sun 11:30:42 AM 39.9544 -119.6939 44° Northeast 473 544 31,200 492 Climbing Oakland Center
Sun 11:31:43 AM 40.0472 -119.5750 44° Northeast 468 539 31,700 492 Climbing Oakland Center
Sun 11:32:44 AM 40.1400 -119.4572 44° Northeast 465 535 32,200 492 Climbing Oakland Center
Sun 11:33:45 AM 40.2314 -119.3397 44° Northeast 460 529 32,700 393 Climbing Oakland Center
Sun 11:34:46 AM 40.3244 -119.2208 44° Northeast 462 532 33,000 148 Climbing Oakland Center
Sun 11:35:47 AM 40.4175 -119.1011 44° Northeast 465 535 33,000  Level Oakland Center
Sun 11:36:48 AM 40.5114 -118.9789 45° Northeast 470 541 33,000  Level Oakland Center
Sun 11:37:49 AM 40.6047 -118.8575 45° Northeast 472 543 33,000  Level Oakland Center
Sun 11:38:50 AM 40.6967 -118.7367 45° Northeast 467 537 33,000  Level Oakland Center
Sun 11:39:51 AM 40.8017 -118.5997 45° Northeast 456 525 33,000  Level Oakland Center
Sun 11:40:52 AM 40.8864 -118.4878 45° Northeast 451 519 33,000  Level Oakland Center
Sun 11:41:53 AM 40.9697 -118.3767 45° Northeast 446 513 33,000  Level Oakland Center
Sun 11:42:23 AM 41.0131 -118.3211 44° Northeast 446 513 33,000  Level Salt Lake Center
Sun 11:43:25 AM 41.1119 -118.1889 45° Northeast 449 517 33,000  Level Salt Lake Center
Sun 11:44:27 AM 41.1978 -118.0739 45° Northeast 453 521 33,000  Level Salt Lake Center
Sun 11:45:29 AM 41.2994 -117.9381 45° Northeast 461 531 33,000  Level Salt Lake Center
Sun 11:46:31 AM 41.3861 -117.8222 45° Northeast 462 532 33,000  Level Salt Lake Center
Sun 11:47:33 AM 41.4881 -117.6822 46° Northeast 469 540 33,000  Level Salt Lake Center
Sun 11:48:35 AM 41.5753 -117.5647 45° Northeast 464 534 33,000  Level Salt Lake Center
Sun 11:49:37 AM 41.6767 -117.4258 46° Northeast 466 536 33,000  Level Salt Lake Center
Sun 11:50:39 AM 41.7639 -117.3011 47° Northeast 478 550 33,000  Level Salt Lake Center
Sun 11:51:41 AM 41.8500 -117.1842 45° Northeast 463 533 33,000  Level Salt Lake Center
Sun 11:52:43 AM 41.9494 -117.0475 46° Northeast 457 526 33,000  Level Salt Lake Center
Sun 11:53:45 AM 42.0339 -116.9272 47° Northeast 461 531 33,000  Level Salt Lake Center
Sun 11:54:47 AM 42.1328 -116.7911 46° Northeast 453 521 33,000  Level Salt Lake Center
Sun 11:55:49 AM 42.2242 -116.6603 47° Northeast 450 518 33,000  Level Salt Lake Center
Sun 11:56:51 AM 42.3078 -116.5447 46° Northeast 449 517 33,000  Level Salt Lake Center
Sun 11:57:52 AM 42.4036 -116.4081 46° Northeast 449 517 33,000  Level Salt Lake Center
Sun 11:58:54 AM 42.4856 -116.2925 46° Northeast 446 513 33,000  Level Salt Lake Center
Sun 11:59:56 AM 42.5667 -116.1764 46° Northeast 446 513 33,000  Level Salt Lake Center
Sun 12:00:58 PM 42.6631 -116.0389 46° Northeast 450 518 33,000  Level Salt Lake Center
Sun 12:02:00 PM 42.7439 -115.9192 47° Northeast 451 519 33,000  Level Salt Lake Center
Sun 12:03:02 PM 42.8406 -115.7808 46° Northeast 452 520 33,000  Level Salt Lake Center
Sun 12:04:04 PM 42.9236 -115.6611 47° Northeast 454 522 33,000  Level Salt Lake Center
Sun 12:05:06 PM 43.0206 -115.5192 47° Northeast 457 526 33,000  Level Salt Lake Center
Sun 12:06:08 PM 43.1036 -115.3983 47° Northeast 457 526 33,000  Level Salt Lake Center
Sun 12:07:10 PM 43.2008 -115.2550 47° Northeast 461 531 33,000  Level Salt Lake Center
Sun 12:08:12 PM 43.2842 -115.1328 47° Northeast 460 529 33,000  Level Salt Lake Center
Sun 12:09:14 PM 43.3800 -114.9883 48° Northeast 460 529 33,000  Level Salt Lake Center
Sun 12:10:16 PM 43.4631 -114.8661 47° Northeast 458 527 33,000  Level Salt Lake Center
Sun 12:11:18 PM 43.5597 -114.7211 47° Northeast 461 531 33,000  Level Salt Lake Center
Sun 12:12:20 PM 43.6419 -114.5975 47° Northeast 457 526 33,000  Level Salt Lake Center
Sun 12:13:22 PM 43.7381 -114.4517 48° Northeast 459 528 33,000  Level Salt Lake Center
Sun 12:14:23 PM 43.8208 -114.3269 47° Northeast 462 532 33,000  Level Salt Lake Center
Sun 12:15:25 PM 43.9019 -114.2019 48° Northeast 457 526 33,000  Level Salt Lake Center
Sun 12:16:27 PM 43.9972 -114.0567 48° Northeast 457 526 33,000  Level Salt Lake Center
Sun 12:17:29 PM 44.0756 -113.9317 49° Northeast 454 522 33,000  Level Salt Lake Center
Sun 12:18:31 PM 44.1686 -113.7847 49° Northeast 454 522 33,000  Level Salt Lake Center
Sun 12:19:33 PM 44.2506 -113.6594 48° Northeast 456 525 33,000  Level Salt Lake Center
Sun 12:20:35 PM 44.3436 -113.5106 49° Northeast 457 526 33,000  Level Salt Lake Center
Sun 12:21:37 PM 44.4261 -113.3847 47° Northeast 458 527 33,000  Level Salt Lake Center
Sun 12:22:39 PM 44.5194 -113.2350 49° Northeast 457 526 33,000  Level Salt Lake Center
Sun 12:23:41 PM 44.6006 -113.1072 48° Northeast 458 527 33,000  Level Salt Lake Center
Sun 12:24:43 PM 44.6939 -112.9578 49° Northeast 457 526 33,000  Level Salt Lake Center
Sun 12:25:45 PM 44.7742 -112.8283 49° Northeast 458 527 33,000 -823 Level Salt Lake Center
Sun 12:26:47 PM 44.8689 -112.6744 49° Northeast 464 534 31,300 -1,984 Descending Salt Lake Center
Sun 12:27:49 PM 44.9569 -112.5336 49° Northeast 490 564 28,900 -2,323 Descending Salt Lake Center
Sun 12:28:51 PM 45.0442 -112.3903 49° Northeast 499 574 26,500 -2,516 Descending Salt Lake Center
Sun 12:29:53 PM 45.1444 -112.2264 49° Northeast 494 568 23,700 -2,661 Descending Salt Lake Center
Sun 12:30:55 PM 45.2367 -112.0769 49° Northeast 479 551 21,000 -2,516 Descending Salt Lake Center
Sun 12:31:57 PM 45.3169 -111.9408 50° Northeast 458 527 18,500 -2,371 Descending Salt Lake Center
Sun 12:32:59 PM 45.3928 -111.8172 49° Northeast 422 486 16,100 -2,081 Descending Salt Lake Center
Sun 12:34:01 PM 45.4586 -111.7056 50° Northeast 381 438 14,200 -1,790 Descending Salt Lake Center
Sun 12:35:03 PM 45.5194 -111.6003 50° Northeast 353 406 12,400 -1,500 Descending Salt Lake Center
Sun 12:36:05 PM 45.5911 -111.5358 32° Northeast 319 367 11,100 -960 Descending Salt Lake Center
Sun 12:37:08 PM 45.6617 -111.4664 35° Northeast 278 320 10,400 -1,104 Descending Salt Lake Center
Sun 12:38:10 PM 45.7122 -111.4047 40° Northeast 251 289 8,800 -1,113 Descending Salt Lake Center
Sun 12:39:12 PM 45.7633 -111.3514 36° Northeast 237 273 8,100 -677 Descending Salt Lake Center

Login

Don't have an account? Register now (free) for customized features, flight alerts, and more!